sensor_id;sensor_type;location;lat;lon;timestamp;temperature;humidity
1812;DHT22;904;47.814;11.134;2023-03-16T00:00:20;5.20;71.20
1812;DHT22;904;47.814;11.134;2023-03-16T00:02:50;5.20;71.20
1812;DHT22;904;47.814;11.134;2023-03-16T00:05:17;5.20;71.00
1812;DHT22;904;47.814;11.134;2023-03-16T00:07:49;5.20;70.90
1812;DHT22;904;47.814;11.134;2023-03-16T00:10:22;5.10;71.00
1812;DHT22;904;47.814;11.134;2023-03-16T00:12:53;5.10;71.30
1812;DHT22;904;47.814;11.134;2023-03-16T00:15:20;5.10;71.50
1812;DHT22;904;47.814;11.134;2023-03-16T00:17:49;5.10;73.00
1812;DHT22;904;47.814;11.134;2023-03-16T00:20:17;5.00;72.20
1812;DHT22;904;47.814;11.134;2023-03-16T00:22:50;5.00;72.10
1812;DHT22;904;47.814;11.134;2023-03-16T00:25:22;5.00;72.60
1812;DHT22;904;47.814;11.134;2023-03-16T00:27:54;4.90;73.20
1812;DHT22;904;47.814;11.134;2023-03-16T00:30:22;4.90;73.80
1812;DHT22;904;47.814;11.134;2023-03-16T00:32:51;4.80;74.00
1812;DHT22;904;47.814;11.134;2023-03-16T00:35:19;4.90;73.80
1812;DHT22;904;47.814;11.134;2023-03-16T00:37:46;4.90;73.90
1812;DHT22;904;47.814;11.134;2023-03-16T00:40:14;4.80;74.10
1812;DHT22;904;47.814;11.134;2023-03-16T00:42:41;4.80;74.30
1812;DHT22;904;47.814;11.134;2023-03-16T00:45:10;4.80;74.30
1812;DHT22;904;47.814;11.134;2023-03-16T00:47:37;4.80;74.40
1812;DHT22;904;47.814;11.134;2023-03-16T00:50:11;4.80;74.60
1812;DHT22;904;47.814;11.134;2023-03-16T00:52:44;4.80;74.50
1812;DHT22;904;47.814;11.134;2023-03-16T00:55:17;4.70;73.70
1812;DHT22;904;47.814;11.134;2023-03-16T00:57:44;4.60;73.30
1812;DHT22;904;47.814;11.134;2023-03-16T01:00:21;4.60;73.20
1812;DHT22;904;47.814;11.134;2023-03-16T01:02:51;4.60;73.60
1812;DHT22;904;47.814;11.134;2023-03-16T01:05:20;4.50;73.60
1812;DHT22;904;47.814;11.134;2023-03-16T01:07:47;4.50;73.60
1812;DHT22;904;47.814;11.134;2023-03-16T01:10:15;4.40;73.90
1812;DHT22;904;47.814;11.134;2023-03-16T01:12:42;4.40;74.00
1812;DHT22;904;47.814;11.134;2023-03-16T01:15:16;4.30;73.90
1812;DHT22;904;47.814;11.134;2023-03-16T01:17:43;4.20;74.40
1812;DHT22;904;47.814;11.134;2023-03-16T01:20:11;4.20;75.00
1812;DHT22;904;47.814;11.134;2023-03-16T01:22:42;4.20;75.20
1812;DHT22;904;47.814;11.134;2023-03-16T01:25:10;4.10;75.10
1812;DHT22;904;47.814;11.134;2023-03-16T01:27:40;4.10;75.40
1812;DHT22;904;47.814;11.134;2023-03-16T01:30:09;4.00;76.20
1812;DHT22;904;47.814;11.134;2023-03-16T01:32:40;3.90;76.50
1812;DHT22;904;47.814;11.134;2023-03-16T01:35:08;3.90;76.80
1812;DHT22;904;47.814;11.134;2023-03-16T01:37:35;3.90;76.90
1812;DHT22;904;47.814;11.134;2023-03-16T01:40:05;3.80;77.30
1812;DHT22;904;47.814;11.134;2023-03-16T01:42:47;3.80;76.80
1812;DHT22;904;47.814;11.134;2023-03-16T01:48:26;3.60;75.30
1812;DHT22;904;47.814;11.134;2023-03-16T01:50:54;3.60;75.80
1812;DHT22;904;47.814;11.134;2023-03-16T01:53:24;3.50;76.40
1812;DHT22;904;47.814;11.134;2023-03-16T01:55:53;3.50;76.70
1812;DHT22;904;47.814;11.134;2023-03-16T01:58:21;3.40;77.60
1812;DHT22;904;47.814;11.134;2023-03-16T02:00:53;3.40;78.70
1812;DHT22;904;47.814;11.134;2023-03-16T02:03:23;3.40;79.10
1812;DHT22;904;47.814;11.134;2023-03-16T02:05:55;3.40;80.00
1812;DHT22;904;47.814;11.134;2023-03-16T02:08:26;3.40;79.80
1812;DHT22;904;47.814;11.134;2023-03-16T02:10:56;3.40;79.10
1812;DHT22;904;47.814;11.134;2023-03-16T02:13:26;3.40;79.20
1812;DHT22;904;47.814;11.134;2023-03-16T02:15:54;3.40;79.70
1812;DHT22;904;47.814;11.134;2023-03-16T02:18:26;3.40;80.50
1812;DHT22;904;47.814;11.134;2023-03-16T02:20:57;3.40;81.10
1812;DHT22;904;47.814;11.134;2023-03-16T02:23:30;3.40;82.20
1812;DHT22;904;47.814;11.134;2023-03-16T02:26:04;3.30;81.40
1812;DHT22;904;47.814;11.134;2023-03-16T02:28:38;3.30;81.60
1812;DHT22;904;47.814;11.134;2023-03-16T02:31:19;3.30;82.00
1812;DHT22;904;47.814;11.134;2023-03-16T02:33:49;3.30;81.60
1812;DHT22;904;47.814;11.134;2023-03-16T02:36:25;3.30;81.50
1812;DHT22;904;47.814;11.134;2023-03-16T02:38:55;3.20;82.00
1812;DHT22;904;47.814;11.134;2023-03-16T02:41:22;3.10;82.20
1812;DHT22;904;47.814;11.134;2023-03-16T02:43:54;3.10;82.50
1812;DHT22;904;47.814;11.134;2023-03-16T02:46:27;3.10;82.70
1812;DHT22;904;47.814;11.134;2023-03-16T02:49:00;3.00;82.50
1812;DHT22;904;47.814;11.134;2023-03-16T02:51:30;3.00;82.80
1812;DHT22;904;47.814;11.134;2023-03-16T02:53:58;2.90;82.90
1812;DHT22;904;47.814;11.134;2023-03-16T02:56:25;2.90;83.20
1812;DHT22;904;47.814;11.134;2023-03-16T02:58:53;2.90;84.30
1812;DHT22;904;47.814;11.134;2023-03-16T03:01:28;2.90;83.70
1812;DHT22;904;47.814;11.134;2023-03-16T03:03:56;2.80;83.70
1812;DHT22;904;47.814;11.134;2023-03-16T03:06:27;2.80;83.50
1812;DHT22;904;47.814;11.134;2023-03-16T03:08:55;2.80;83.10
1812;DHT22;904;47.814;11.134;2023-03-16T03:11:22;2.80;83.40
1812;DHT22;904;47.814;11.134;2023-03-16T03:13:51;2.70;83.80
1812;DHT22;904;47.814;11.134;2023-03-16T03:16:19;2.70;83.60
1812;DHT22;904;47.814;11.134;2023-03-16T03:21:18;2.60;83.00
1812;DHT22;904;47.814;11.134;2023-03-16T03:23:45;2.60;82.80
1812;DHT22;904;47.814;11.134;2023-03-16T03:26:17;2.60;82.70
1812;DHT22;904;47.814;11.134;2023-03-16T03:28:47;2.60;83.00
1812;DHT22;904;47.814;11.134;2023-03-16T03:31:15;2.50;83.50
1812;DHT22;904;47.814;11.134;2023-03-16T03:33:42;2.40;84.70
1812;DHT22;904;47.814;11.134;2023-03-16T03:36:12;2.40;85.10
1812;DHT22;904;47.814;11.134;2023-03-16T03:38:39;2.30;85.10
1812;DHT22;904;47.814;11.134;2023-03-16T03:41:07;2.30;84.60
1812;DHT22;904;47.814;11.134;2023-03-16T03:43:37;2.30;83.80
1812;DHT22;904;47.814;11.134;2023-03-16T03:46:04;2.30;84.60
1812;DHT22;904;47.814;11.134;2023-03-16T03:48:35;2.20;85.00
1812;DHT22;904;47.814;11.134;2023-03-16T03:51:05;2.30;85.40
1812;DHT22;904;47.814;11.134;2023-03-16T03:53:39;2.20;85.00
1812;DHT22;904;47.814;11.134;2023-03-16T03:56:10;2.20;85.00
1812;DHT22;904;47.814;11.134;2023-03-16T03:58:37;2.20;85.10
1812;DHT22;904;47.814;11.134;2023-03-16T04:01:10;2.20;84.90
1812;DHT22;904;47.814;11.134;2023-03-16T04:03:37;2.10;84.80
1812;DHT22;904;47.814;11.134;2023-03-16T04:06:05;2.10;84.90
1812;DHT22;904;47.814;11.134;2023-03-16T04:08:33;2.10;84.20
1812;DHT22;904;47.814;11.134;2023-03-16T04:11:02;2.00;83.60
1812;DHT22;904;47.814;11.134;2023-03-16T04:13:29;1.90;83.70
1812;DHT22;904;47.814;11.134;2023-03-16T04:15:57;1.90;84.80
1812;DHT22;904;47.814;11.134;2023-03-16T04:18:24;1.80;85.20
1812;DHT22;904;47.814;11.134;2023-03-16T04:20:51;1.80;86.00
1812;DHT22;904;47.814;11.134;2023-03-16T04:23:19;1.80;86.10
1812;DHT22;904;47.814;11.134;2023-03-16T04:25:46;1.90;86.60
1812;DHT22;904;47.814;11.134;2023-03-16T04:28:16;1.90;86.70
1812;DHT22;904;47.814;11.134;2023-03-16T04:30:43;2.00;86.90
1812;DHT22;904;47.814;11.134;2023-03-16T04:33:10;2.00;87.00
1812;DHT22;904;47.814;11.134;2023-03-16T04:35:37;1.90;87.10
1812;DHT22;904;47.814;11.134;2023-03-16T04:38:04;1.90;86.90
1812;DHT22;904;47.814;11.134;2023-03-16T04:40:32;1.90;85.60
1812;DHT22;904;47.814;11.134;2023-03-16T04:43:00;1.90;84.40
1812;DHT22;904;47.814;11.134;2023-03-16T04:45:29;1.80;83.70
1812;DHT22;904;47.814;11.134;2023-03-16T04:47:58;1.70;83.40
1812;DHT22;904;47.814;11.134;2023-03-16T04:50:25;1.70;83.70
1812;DHT22;904;47.814;11.134;2023-03-16T04:52:54;1.60;84.20
1812;DHT22;904;47.814;11.134;2023-03-16T04:55:21;1.60;85.40
1812;DHT22;904;47.814;11.134;2023-03-16T04:57:49;1.60;85.70
1812;DHT22;904;47.814;11.134;2023-03-16T05:00:23;1.60;85.70
1812;DHT22;904;47.814;11.134;2023-03-16T05:02:51;1.60;84.70
1812;DHT22;904;47.814;11.134;2023-03-16T05:05:19;1.50;83.90
1812;DHT22;904;47.814;11.134;2023-03-16T05:07:47;1.50;83.70
1812;DHT22;904;47.814;11.134;2023-03-16T05:10:16;1.40;83.80
1812;DHT22;904;47.814;11.134;2023-03-16T05:12:52;1.40;84.70
1812;DHT22;904;47.814;11.134;2023-03-16T05:15:19;1.40;85.50
1812;DHT22;904;47.814;11.134;2023-03-16T05:17:51;1.40;85.80
1812;DHT22;904;47.814;11.134;2023-03-16T05:20:18;1.40;85.80
1812;DHT22;904;47.814;11.134;2023-03-16T05:22:46;1.40;85.40
1812;DHT22;904;47.814;11.134;2023-03-16T05:25:14;1.50;85.30
1812;DHT22;904;47.814;11.134;2023-03-16T05:27:43;1.40;84.90
1812;DHT22;904;47.814;11.134;2023-03-16T05:30:13;1.40;85.50
1812;DHT22;904;47.814;11.134;2023-03-16T05:32:45;1.40;85.50
1812;DHT22;904;47.814;11.134;2023-03-16T05:35:14;1.40;85.30
1812;DHT22;904;47.814;11.134;2023-03-16T05:37:42;1.40;85.10
1812;DHT22;904;47.814;11.134;2023-03-16T05:40:12;1.40;84.90
1812;DHT22;904;47.814;11.134;2023-03-16T05:42:43;1.40;85.40
1812;DHT22;904;47.814;11.134;2023-03-16T05:45:11;1.50;85.90
1812;DHT22;904;47.814;11.134;2023-03-16T05:47:38;1.50;85.50
1812;DHT22;904;47.814;11.134;2023-03-16T05:50:07;1.50;85.40
1812;DHT22;904;47.814;11.134;2023-03-16T05:52:38;1.60;85.40
1812;DHT22;904;47.814;11.134;2023-03-16T05:55:09;1.60;85.40
1812;DHT22;904;47.814;11.134;2023-03-16T05:57:38;1.70;85.20
1812;DHT22;904;47.814;11.134;2023-03-16T06:00:08;1.80;85.20
1812;DHT22;904;47.814;11.134;2023-03-16T06:02:39;1.80;85.30
1812;DHT22;904;47.814;11.134;2023-03-16T06:05:09;1.90;85.00
1812;DHT22;904;47.814;11.134;2023-03-16T06:07:38;1.90;85.30
1812;DHT22;904;47.814;11.134;2023-03-16T06:10:07;2.00;85.50
1812;DHT22;904;47.814;11.134;2023-03-16T06:12:34;2.00;83.70
1812;DHT22;904;47.814;11.134;2023-03-16T06:15:01;2.10;82.90
1812;DHT22;904;47.814;11.134;2023-03-16T06:17:32;2.10;82.90
1812;DHT22;904;47.814;11.134;2023-03-16T06:19:59;2.20;83.30
1812;DHT22;904;47.814;11.134;2023-03-16T06:22:26;2.30;83.50
1812;DHT22;904;47.814;11.134;2023-03-16T06:24:56;2.40;83.10
1812;DHT22;904;47.814;11.134;2023-03-16T06:27:23;2.50;82.60
1812;DHT22;904;47.814;11.134;2023-03-16T06:29:51;2.50;82.80
1812;DHT22;904;47.814;11.134;2023-03-16T06:32:19;2.50;83.00
1812;DHT22;904;47.814;11.134;2023-03-16T06:34:50;2.60;82.90
1812;DHT22;904;47.814;11.134;2023-03-16T06:37:17;2.70;83.10
1812;DHT22;904;47.814;11.134;2023-03-16T06:39:46;2.80;82.60
1812;DHT22;904;47.814;11.134;2023-03-16T06:42:15;2.90;82.00
1812;DHT22;904;47.814;11.134;2023-03-16T06:44:43;3.00;81.60
1812;DHT22;904;47.814;11.134;2023-03-16T06:47:10;3.00;81.10
1812;DHT22;904;47.814;11.134;2023-03-16T06:49:37;3.00;80.80
1812;DHT22;904;47.814;11.134;2023-03-16T06:52:05;3.00;80.80
1812;DHT22;904;47.814;11.134;2023-03-16T06:54:32;3.20;81.00
1812;DHT22;904;47.814;11.134;2023-03-16T06:57:00;3.40;81.30
1812;DHT22;904;47.814;11.134;2023-03-16T06:59:29;3.70;81.30
1812;DHT22;904;47.814;11.134;2023-03-16T07:01:56;4.00;80.50
1812;DHT22;904;47.814;11.134;2023-03-16T07:04:26;4.30;80.00
1812;DHT22;904;47.814;11.134;2023-03-16T07:06:53;4.80;79.90
1812;DHT22;904;47.814;11.134;2023-03-16T07:09:20;5.30;77.80
1812;DHT22;904;47.814;11.134;2023-03-16T07:11:47;5.70;75.60
1812;DHT22;904;47.814;11.134;2023-03-16T07:14:15;6.20;73.40
1812;DHT22;904;47.814;11.134;2023-03-16T07:16:43;7.10;69.50
1812;DHT22;904;47.814;11.134;2023-03-16T07:19:11;9.00;62.20
1812;DHT22;904;47.814;11.134;2023-03-16T07:21:37;11.50;55.80
1812;DHT22;904;47.814;11.134;2023-03-16T07:24:06;14.30;47.90
1812;DHT22;904;47.814;11.134;2023-03-16T07:26:49;16.40;40.50
1812;DHT22;904;47.814;11.134;2023-03-16T07:29:17;18.60;35.80
1812;DHT22;904;47.814;11.134;2023-03-16T07:31:46;20.50;31.20
1812;DHT22;904;47.814;11.134;2023-03-16T07:34:13;22.30;27.70
1812;DHT22;904;47.814;11.134;2023-03-16T07:36:41;23.90;25.80
1812;DHT22;904;47.814;11.134;2023-03-16T07:39:08;25.20;23.80
1812;DHT22;904;47.814;11.134;2023-03-16T07:41:38;26.40;21.70
1812;DHT22;904;47.814;11.134;2023-03-16T07:44:06;27.20;20.50
1812;DHT22;904;47.814;11.134;2023-03-16T07:46:33;27.80;19.50
1812;DHT22;904;47.814;11.134;2023-03-16T07:49:01;28.40;18.60
1812;DHT22;904;47.814;11.134;2023-03-16T07:51:28;28.50;18.20
1812;DHT22;904;47.814;11.134;2023-03-16T07:53:55;28.80;18.80
1812;DHT22;904;47.814;11.134;2023-03-16T07:56:22;29.70;17.10
1812;DHT22;904;47.814;11.134;2023-03-16T07:58:49;30.30;16.80
1812;DHT22;904;47.814;11.134;2023-03-16T08:01:16;31.20;16.50
1812;DHT22;904;47.814;11.134;2023-03-16T08:03:43;32.00;15.30
1812;DHT22;904;47.814;11.134;2023-03-16T08:06:11;32.90;14.80
1812;DHT22;904;47.814;11.134;2023-03-16T08:08:38;33.70;14.10
1812;DHT22;904;47.814;11.134;2023-03-16T08:11:05;34.30;13.80
1812;DHT22;904;47.814;11.134;2023-03-16T08:13:32;34.90;13.20
1812;DHT22;904;47.814;11.134;2023-03-16T08:15:59;35.40;13.10
1812;DHT22;904;47.814;11.134;2023-03-16T08:18:27;36.10;12.60
1812;DHT22;904;47.814;11.134;2023-03-16T08:20:54;36.90;12.00
1812;DHT22;904;47.814;11.134;2023-03-16T08:23:23;37.40;11.40
1812;DHT22;904;47.814;11.134;2023-03-16T08:25:51;37.90;11.50
1812;DHT22;904;47.814;11.134;2023-03-16T08:28:18;38.60;11.00
1812;DHT22;904;47.814;11.134;2023-03-16T08:30:47;39.00;10.40
1812;DHT22;904;47.814;11.134;2023-03-16T08:33:15;39.20;9.60
1812;DHT22;904;47.814;11.134;2023-03-16T08:35:44;39.40;9.00
1812;DHT22;904;47.814;11.134;2023-03-16T08:38:12;39.50;9.20
1812;DHT22;904;47.814;11.134;2023-03-16T08:40:41;39.90;8.90
1812;DHT22;904;47.814;11.134;2023-03-16T08:43:12;40.30;8.30
1812;DHT22;904;47.814;11.134;2023-03-16T08:45:44;40.60;7.90
1812;DHT22;904;47.814;11.134;2023-03-16T08:48:11;41.00;8.20
1812;DHT22;904;47.814;11.134;2023-03-16T08:50:39;41.30;8.10
1812;DHT22;904;47.814;11.134;2023-03-16T08:53:08;41.50;8.40
1812;DHT22;904;47.814;11.134;2023-03-16T08:55:35;41.50;8.10
1812;DHT22;904;47.814;11.134;2023-03-16T08:58:07;41.70;8.10
1812;DHT22;904;47.814;11.134;2023-03-16T09:00:34;42.10;8.00
1812;DHT22;904;47.814;11.134;2023-03-16T09:03:01;42.50;7.90
1812;DHT22;904;47.814;11.134;2023-03-16T09:05:28;42.70;7.30
1812;DHT22;904;47.814;11.134;2023-03-16T09:07:55;42.80;7.70
1812;DHT22;904;47.814;11.134;2023-03-16T09:10:23;43.20;7.50
1812;DHT22;904;47.814;11.134;2023-03-16T09:12:52;43.50;7.10
1812;DHT22;904;47.814;11.134;2023-03-16T09:15:20;43.90;6.80
1812;DHT22;904;47.814;11.134;2023-03-16T09:17:48;44.20;6.70
1812;DHT22;904;47.814;11.134;2023-03-16T09:20:16;44.20;6.60
1812;DHT22;904;47.814;11.134;2023-03-16T09:22:43;44.10;6.60
1812;DHT22;904;47.814;11.134;2023-03-16T09:25:10;44.20;6.60
1812;DHT22;904;47.814;11.134;2023-03-16T09:27:39;44.40;6.30
1812;DHT22;904;47.814;11.134;2023-03-16T09:30:07;44.70;5.90
1812;DHT22;904;47.814;11.134;2023-03-16T09:32:36;45.00;6.50
1812;DHT22;904;47.814;11.134;2023-03-16T09:35:04;45.40;5.40
1812;DHT22;904;47.814;11.134;2023-03-16T09:37:31;45.80;5.60
1812;DHT22;904;47.814;11.134;2023-03-16T09:39:58;46.00;5.70
1812;DHT22;904;47.814;11.134;2023-03-16T09:42:31;46.00;5.50
1812;DHT22;904;47.814;11.134;2023-03-16T09:45:08;46.20;5.40
1812;DHT22;904;47.814;11.134;2023-03-16T09:47:37;46.60;5.70
1812;DHT22;904;47.814;11.134;2023-03-16T09:50:10;47.00;5.00
1812;DHT22;904;47.814;11.134;2023-03-16T09:52:45;47.20;4.80
1812;DHT22;904;47.814;11.134;2023-03-16T09:55:24;47.30;3.80
1812;DHT22;904;47.814;11.134;2023-03-16T09:57:53;47.30;3.80
1812;DHT22;904;47.814;11.134;2023-03-16T10:00:23;47.40;4.40
1812;DHT22;904;47.814;11.134;2023-03-16T10:03:17;47.70;4.70
1812;DHT22;904;47.814;11.134;2023-03-16T10:05:56;47.80;4.00
1812;DHT22;904;47.814;11.134;2023-03-16T10:08:28;47.50;3.80
1812;DHT22;904;47.814;11.134;2023-03-16T10:11:09;47.40;3.90
1812;DHT22;904;47.814;11.134;2023-03-16T10:13:42;47.20;3.60
1812;DHT22;904;47.814;11.134;2023-03-16T10:16:13;47.00;3.80
1812;DHT22;904;47.814;11.134;2023-03-16T10:18:46;46.80;4.40
1812;DHT22;904;47.814;11.134;2023-03-16T10:21:15;47.40;4.10
1812;DHT22;904;47.814;11.134;2023-03-16T10:23:43;47.70;4.40
1812;DHT22;904;47.814;11.134;2023-03-16T10:26:14;47.90;4.20
1812;DHT22;904;47.814;11.134;2023-03-16T10:28:43;48.20;3.60
1812;DHT22;904;47.814;11.134;2023-03-16T10:31:11;48.00;4.40
1812;DHT22;904;47.814;11.134;2023-03-16T10:33:39;48.00;4.10
1812;DHT22;904;47.814;11.134;2023-03-16T10:36:14;48.10;3.80
1812;DHT22;904;47.814;11.134;2023-03-16T10:38:45;48.10;4.20
1812;DHT22;904;47.814;11.134;2023-03-16T10:41:26;48.10;3.60
1812;DHT22;904;47.814;11.134;2023-03-16T10:43:54;48.10;3.70
1812;DHT22;904;47.814;11.134;2023-03-16T10:46:23;48.10;3.90
1812;DHT22;904;47.814;11.134;2023-03-16T10:48:51;48.00;4.10
1812;DHT22;904;47.814;11.134;2023-03-16T10:51:26;48.30;4.00
1812;DHT22;904;47.814;11.134;2023-03-16T10:54:00;47.90;3.10
1812;DHT22;904;47.814;11.134;2023-03-16T10:56:33;46.80;3.10
1812;DHT22;904;47.814;11.134;2023-03-16T10:59:12;46.60;4.20
1812;DHT22;904;47.814;11.134;2023-03-16T11:01:44;47.00;4.00
1812;DHT22;904;47.814;11.134;2023-03-16T11:04:13;47.20;4.10
1812;DHT22;904;47.814;11.134;2023-03-16T11:06:51;47.20;3.90
1812;DHT22;904;47.814;11.134;2023-03-16T11:09:22;46.50;3.00
1812;DHT22;904;47.814;11.134;2023-03-16T11:11:50;45.50;3.80
1812;DHT22;904;47.814;11.134;2023-03-16T11:14:20;45.50;3.90
1812;DHT22;904;47.814;11.134;2023-03-16T11:16:52;45.50;3.70
1812;DHT22;904;47.814;11.134;2023-03-16T11:19:24;45.40;3.50
1812;DHT22;904;47.814;11.134;2023-03-16T11:21:57;45.60;3.80
1812;DHT22;904;47.814;11.134;2023-03-16T11:24:32;46.00;4.80
1812;DHT22;904;47.814;11.134;2023-03-16T11:27:02;46.00;5.10
1812;DHT22;904;47.814;11.134;2023-03-16T11:29:40;46.00;4.50
1812;DHT22;904;47.814;11.134;2023-03-16T11:32:12;46.30;4.40
1812;DHT22;904;47.814;11.134;2023-03-16T11:34:40;46.40;4.20
1812;DHT22;904;47.814;11.134;2023-03-16T11:37:29;46.00;4.00
1812;DHT22;904;47.814;11.134;2023-03-16T11:40:05;46.00;4.30
1812;DHT22;904;47.814;11.134;2023-03-16T11:42:41;46.10;4.30
1812;DHT22;904;47.814;11.134;2023-03-16T11:45:18;45.80;4.00
1812;DHT22;904;47.814;11.134;2023-03-16T11:48:05;45.10;4.20
1812;DHT22;904;47.814;11.134;2023-03-16T11:50:45;44.50;4.60
1812;DHT22;904;47.814;11.134;2023-03-16T11:53:23;44.20;5.00
1812;DHT22;904;47.814;11.134;2023-03-16T11:56:04;44.10;5.00
1812;DHT22;904;47.814;11.134;2023-03-16T11:58:59;44.00;4.60
1812;DHT22;904;47.814;11.134;2023-03-16T12:01:37;44.10;5.20
1812;DHT22;904;47.814;11.134;2023-03-16T12:04:21;44.00;5.20
1812;DHT22;904;47.814;11.134;2023-03-16T12:07:01;43.70;4.90
1812;DHT22;904;47.814;11.134;2023-03-16T12:09:49;43.70;5.30
1812;DHT22;904;47.814;11.134;2023-03-16T12:12:35;43.90;5.10
1812;DHT22;904;47.814;11.134;2023-03-16T12:15:18;43.90;4.80
1812;DHT22;904;47.814;11.134;2023-03-16T12:17:50;43.70;4.80
1812;DHT22;904;47.814;11.134;2023-03-16T12:20:21;43.30;5.00
1812;DHT22;904;47.814;11.134;2023-03-16T12:22:52;43.20;5.50
1812;DHT22;904;47.814;11.134;2023-03-16T12:25:25;43.00;5.20
1812;DHT22;904;47.814;11.134;2023-03-16T12:27:54;42.40;4.90
1812;DHT22;904;47.814;11.134;2023-03-16T12:30:32;41.90;5.60
1812;DHT22;904;47.814;11.134;2023-03-16T12:33:05;41.70;5.70
1812;DHT22;904;47.814;11.134;2023-03-16T12:35:41;40.90;4.90
1812;DHT22;904;47.814;11.134;2023-03-16T12:38:25;39.50;6.00
1812;DHT22;904;47.814;11.134;2023-03-16T12:41:04;38.30;6.70
1812;DHT22;904;47.814;11.134;2023-03-16T12:43:44;37.50;7.00
1812;DHT22;904;47.814;11.134;2023-03-16T12:46:16;37.10;8.00
1812;DHT22;904;47.814;11.134;2023-03-16T12:48:48;36.70;8.30
1812;DHT22;904;47.814;11.134;2023-03-16T12:51:18;36.10;8.10
1812;DHT22;904;47.814;11.134;2023-03-16T12:53:51;35.30;8.20
1812;DHT22;904;47.814;11.134;2023-03-16T12:56:27;34.30;8.60
1812;DHT22;904;47.814;11.134;2023-03-16T12:58:56;33.20;9.70
1812;DHT22;904;47.814;11.134;2023-03-16T13:01:27;32.60;10.70
1812;DHT22;904;47.814;11.134;2023-03-16T13:03:59;32.60;10.30
1812;DHT22;904;47.814;11.134;2023-03-16T13:06:32;33.20;10.50
1812;DHT22;904;47.814;11.134;2023-03-16T13:09:01;33.80;9.70
1812;DHT22;904;47.814;11.134;2023-03-16T13:11:46;34.60;9.50
1812;DHT22;904;47.814;11.134;2023-03-16T13:14:32;35.10;9.30
1812;DHT22;904;47.814;11.134;2023-03-16T13:17:04;35.20;8.70
1812;DHT22;904;47.814;11.134;2023-03-16T13:19:32;34.90;8.90
1812;DHT22;904;47.814;11.134;2023-03-16T13:22:25;34.10;9.20
1812;DHT22;904;47.814;11.134;2023-03-16T13:24:53;33.30;9.40
1812;DHT22;904;47.814;11.134;2023-03-16T13:27:26;33.00;9.70
1812;DHT22;904;47.814;11.134;2023-03-16T13:29:56;32.80;9.90
1812;DHT22;904;47.814;11.134;2023-03-16T13:32:25;32.60;10.10
1812;DHT22;904;47.814;11.134;2023-03-16T13:34:56;32.60;10.30
1812;DHT22;904;47.814;11.134;2023-03-16T13:37:26;32.00;10.50
1812;DHT22;904;47.814;11.134;2023-03-16T13:39:55;30.40;10.90
1812;DHT22;904;47.814;11.134;2023-03-16T13:42:25;28.70;12.00
1812;DHT22;904;47.814;11.134;2023-03-16T13:44:55;27.00;13.90
1812;DHT22;904;47.814;11.134;2023-03-16T13:47:25;25.50;14.50
1812;DHT22;904;47.814;11.134;2023-03-16T13:49:55;24.40;15.30
1812;DHT22;904;47.814;11.134;2023-03-16T13:52:25;23.40;16.20
1812;DHT22;904;47.814;11.134;2023-03-16T13:54:53;22.40;16.90
1812;DHT22;904;47.814;11.134;2023-03-16T13:57:23;21.60;18.10
1812;DHT22;904;47.814;11.134;2023-03-16T14:00:00;21.00;18.60
1812;DHT22;904;47.814;11.134;2023-03-16T14:02:30;20.40;18.70
1812;DHT22;904;47.814;11.134;2023-03-16T14:04:57;20.00;19.20
1812;DHT22;904;47.814;11.134;2023-03-16T14:07:36;19.70;19.90
1812;DHT22;904;47.814;11.134;2023-03-16T14:10:06;19.30;20.50
1812;DHT22;904;47.814;11.134;2023-03-16T14:12:35;19.00;20.90
1812;DHT22;904;47.814;11.134;2023-03-16T14:15:05;18.80;20.90
1812;DHT22;904;47.814;11.134;2023-03-16T14:17:32;18.60;21.10
1812;DHT22;904;47.814;11.134;2023-03-16T14:20:00;18.40;21.50
1812;DHT22;904;47.814;11.134;2023-03-16T14:22:36;18.10;21.30
1812;DHT22;904;47.814;11.134;2023-03-16T14:25:05;18.00;21.80
1812;DHT22;904;47.814;11.134;2023-03-16T14:27:42;17.80;21.70
1812;DHT22;904;47.814;11.134;2023-03-16T14:30:17;17.60;21.20
1812;DHT22;904;47.814;11.134;2023-03-16T14:32:56;17.50;22.10
1812;DHT22;904;47.814;11.134;2023-03-16T14:35:26;17.30;22.80
1812;DHT22;904;47.814;11.134;2023-03-16T14:37:54;17.10;22.70
1812;DHT22;904;47.814;11.134;2023-03-16T14:40:25;17.00;22.20
1812;DHT22;904;47.814;11.134;2023-03-16T14:42:54;16.80;22.80
1812;DHT22;904;47.814;11.134;2023-03-16T14:45:26;16.60;23.40
1812;DHT22;904;47.814;11.134;2023-03-16T14:48:01;16.40;23.70
1812;DHT22;904;47.814;11.134;2023-03-16T14:50:30;16.30;24.30
1812;DHT22;904;47.814;11.134;2023-03-16T14:52:59;16.10;24.60
1812;DHT22;904;47.814;11.134;2023-03-16T14:55:27;15.90;24.70
1812;DHT22;904;47.814;11.134;2023-03-16T14:57:54;15.60;24.50
1812;DHT22;904;47.814;11.134;2023-03-16T15:00:21;15.40;24.90
1812;DHT22;904;47.814;11.134;2023-03-16T15:02:59;15.30;25.20
1812;DHT22;904;47.814;11.134;2023-03-16T15:05:40;15.10;24.90
1812;DHT22;904;47.814;11.134;2023-03-16T15:08:15;15.00;25.10
1812;DHT22;904;47.814;11.134;2023-03-16T15:10:44;14.90;26.10
1812;DHT22;904;47.814;11.134;2023-03-16T15:13:18;14.70;26.40
1812;DHT22;904;47.814;11.134;2023-03-16T15:15:59;14.60;27.30
1812;DHT22;904;47.814;11.134;2023-03-16T15:18:28;14.40;27.20
1812;DHT22;904;47.814;11.134;2023-03-16T15:20:55;14.20;26.80
1812;DHT22;904;47.814;11.134;2023-03-16T15:23:23;14.10;27.70
1812;DHT22;904;47.814;11.134;2023-03-16T15:25:50;14.00;27.70
1812;DHT22;904;47.814;11.134;2023-03-16T15:28:24;13.90;27.80
1812;DHT22;904;47.814;11.134;2023-03-16T15:30:53;13.80;27.80
1812;DHT22;904;47.814;11.134;2023-03-16T15:33:25;13.80;28.20
1812;DHT22;904;47.814;11.134;2023-03-16T15:35:55;13.70;28.00
1812;DHT22;904;47.814;11.134;2023-03-16T15:38:23;13.70;28.40
1812;DHT22;904;47.814;11.134;2023-03-16T15:40:51;13.50;28.50
1812;DHT22;904;47.814;11.134;2023-03-16T15:43:20;13.40;28.50
1812;DHT22;904;47.814;11.134;2023-03-16T15:45:50;13.40;28.30
1812;DHT22;904;47.814;11.134;2023-03-16T15:48:20;13.40;28.30
1812;DHT22;904;47.814;11.134;2023-03-16T15:50:51;13.30;28.40
1812;DHT22;904;47.814;11.134;2023-03-16T15:53:23;13.20;28.60
1812;DHT22;904;47.814;11.134;2023-03-16T15:55:54;13.10;28.80
1812;DHT22;904;47.814;11.134;2023-03-16T15:58:26;13.00;28.70
1812;DHT22;904;47.814;11.134;2023-03-16T16:01:00;12.90;28.70
1812;DHT22;904;47.814;11.134;2023-03-16T16:03:28;12.80;29.20
1812;DHT22;904;47.814;11.134;2023-03-16T16:05:57;12.70;30.00
1812;DHT22;904;47.814;11.134;2023-03-16T16:08:25;12.70;30.30
1812;DHT22;904;47.814;11.134;2023-03-16T16:10:53;12.70;31.00
1812;DHT22;904;47.814;11.134;2023-03-16T16:13:24;12.60;30.10
1812;DHT22;904;47.814;11.134;2023-03-16T16:15:51;12.50;30.10
1812;DHT22;904;47.814;11.134;2023-03-16T16:18:27;12.40;30.10
1812;DHT22;904;47.814;11.134;2023-03-16T16:20:55;12.40;30.00
1812;DHT22;904;47.814;11.134;2023-03-16T16:23:29;12.30;30.10
1812;DHT22;904;47.814;11.134;2023-03-16T16:25:58;12.30;30.80
1812;DHT22;904;47.814;11.134;2023-03-16T16:28:35;12.30;31.00
1812;DHT22;904;47.814;11.134;2023-03-16T16:31:02;12.30;31.30
1812;DHT22;904;47.814;11.134;2023-03-16T16:33:31;12.20;31.50
1812;DHT22;904;47.814;11.134;2023-03-16T16:36:00;12.30;32.00
1812;DHT22;904;47.814;11.134;2023-03-16T16:38:29;12.20;32.20
1812;DHT22;904;47.814;11.134;2023-03-16T16:40:59;12.20;32.30